createdAt,value
2023-02-18T00:00:36.197Z,99.10
2023-02-18T00:03:04.076Z,99.20
2023-02-18T00:05:31.878Z,99.20
2023-02-18T00:07:59.657Z,99.00
2023-02-18T00:10:28.772Z,98.80
2023-02-18T00:12:56.590Z,98.80
2023-02-18T00:15:24.378Z,98.60
2023-02-18T00:17:52.183Z,98.60
2023-02-18T00:20:20.292Z,98.80
2023-02-18T00:22:48.059Z,98.90
2023-02-18T00:25:15.972Z,98.70
2023-02-18T00:27:45.171Z,98.80
2023-02-18T00:30:13.562Z,98.80
2023-02-18T00:32:41.406Z,99.00
2023-02-18T00:35:10.119Z,99.10
2023-02-18T00:37:37.868Z,99.50
2023-02-18T00:40:06.681Z,99.50
2023-02-18T00:42:34.776Z,99.80
2023-02-18T00:45:03.923Z,99.90
2023-02-18T00:47:31.672Z,99.90
2023-02-18T00:49:59.444Z,99.90
2023-02-18T00:52:27.212Z,99.90
2023-02-18T00:54:55.007Z,99.90
2023-02-18T00:57:22.764Z,99.90
2023-02-18T00:59:50.532Z,99.90
2023-02-18T01:02:19.770Z,99.90
2023-02-18T01:04:47.616Z,99.90
2023-02-18T01:07:15.432Z,99.90
2023-02-18T01:09:43.224Z,99.90
2023-02-18T01:12:10.988Z,99.90
2023-02-18T01:14:38.772Z,99.90
2023-02-18T01:17:06.566Z,99.90
2023-02-18T01:19:35.712Z,99.90
2023-02-18T01:22:03.704Z,99.90
2023-02-18T01:24:31.596Z,99.90
2023-02-18T01:26:59.433Z,99.80
2023-02-18T01:29:27.581Z,99.60
2023-02-18T01:31:55.459Z,99.40
2023-02-18T01:34:23.346Z,99.40
2023-02-18T01:36:52.452Z,98.80
2023-02-18T01:39:20.240Z,98.40
2023-02-18T01:41:48.313Z,98.40
2023-02-18T01:44:18.857Z,98.00
2023-02-18T01:46:46.709Z,97.90
2023-02-18T01:49:19.174Z,98.10
2023-02-18T01:51:50.625Z,98.10
2023-02-18T01:54:23.206Z,98.20
2023-02-18T01:56:56.020Z,98.20
2023-02-18T01:59:26.809Z,98.30
2023-02-18T02:01:55.686Z,98.40
2023-02-18T02:04:24.242Z,98.30
2023-02-18T02:06:52.036Z,98.40
2023-02-18T02:09:23.994Z,98.30
2023-02-18T02:12:11.136Z,98.40
2023-02-18T02:15:07.258Z,98.60
2023-02-18T02:17:46.532Z,98.50
2023-02-18T02:20:53.585Z,98.50
2023-02-18T02:23:59.203Z,98.60
2023-02-18T02:26:59.230Z,98.70
2023-02-18T02:29:49.566Z,98.70
2023-02-18T02:32:36.911Z,98.50
2023-02-18T02:35:09.697Z,98.70
2023-02-18T02:37:45.747Z,98.90
2023-02-18T02:40:26.093Z,99.10
2023-02-18T02:43:06.535Z,99.40
2023-02-18T02:45:45.207Z,99.50
2023-02-18T02:48:24.562Z,99.50
2023-02-18T02:50:59.002Z,99.40
2023-02-18T02:53:30.881Z,99.50
2023-02-18T02:55:58.672Z,99.50
2023-02-18T02:58:26.561Z,99.50
2023-02-18T03:01:10.293Z,99.40
2023-02-18T03:03:56.011Z,99.30
2023-02-18T03:06:48.929Z,99.30
2023-02-18T03:09:22.844Z,99.20
2023-02-18T03:11:59.558Z,99.00
2023-02-18T03:14:31.177Z,98.90
2023-02-18T03:17:04.124Z,98.90
2023-02-18T03:19:36.438Z,98.80
2023-02-18T03:22:09.581Z,98.80
2023-02-18T03:24:40.261Z,98.80
2023-02-18T03:27:12.720Z,98.70
2023-02-18T03:29:41.670Z,98.80
2023-02-18T03:32:13.156Z,98.50
2023-02-18T03:34:44.949Z,98.30
2023-02-18T03:37:15.311Z,98.20
2023-02-18T03:39:47.660Z,98.20
2023-02-18T03:42:16.900Z,98.10
2023-02-18T03:44:44.668Z,98.10
2023-02-18T03:47:12.876Z,98.10
2023-02-18T03:49:40.645Z,98.10
2023-02-18T03:52:08.406Z,98.20
2023-02-18T03:54:37.506Z,98.40
2023-02-18T03:57:05.464Z,98.50
2023-02-18T03:59:33.246Z,98.80
2023-02-18T04:02:01.090Z,98.90
2023-02-18T04:04:29.450Z,99.00
2023-02-18T04:06:57.402Z,99.00
2023-02-18T04:09:25.323Z,99.00
2023-02-18T04:11:54.530Z,99.20
2023-02-18T04:14:22.389Z,99.40
2023-02-18T04:16:50.346Z,99.40
2023-02-18T04:19:18.231Z,99.40
2023-02-18T04:21:46.109Z,99.40
2023-02-18T04:24:14.072Z,99.40
2023-02-18T04:26:42.082Z,99.40
2023-02-18T04:29:11.278Z,99.50
2023-02-18T04:31:39.197Z,99.60
2023-02-18T04:34:08.132Z,99.70
2023-02-18T04:36:36.052Z,99.70
2023-02-18T04:39:04.116Z,99.80
2023-02-18T04:41:32.117Z,99.80
2023-02-18T04:44:00.632Z,99.90
2023-02-18T04:46:30.210Z,99.90
2023-02-18T04:48:58.142Z,99.90
2023-02-18T04:51:26.054Z,99.90
2023-02-18T04:53:53.981Z,99.90
2023-02-18T04:56:21.877Z,99.90
2023-02-18T04:58:49.812Z,99.80
2023-02-18T05:01:17.697Z,99.60
2023-02-18T05:03:47.010Z,99.40
2023-02-18T05:06:14.905Z,99.30
2023-02-18T05:08:42.761Z,99.30
2023-02-18T05:11:11.079Z,99.20
2023-02-18T05:13:38.948Z,99.00
2023-02-18T05:16:07.304Z,98.90
2023-02-18T05:18:35.447Z,99.00
2023-02-18T05:21:05.025Z,98.80
2023-02-18T05:23:33.162Z,98.70
2023-02-18T05:26:01.419Z,98.70
2023-02-18T05:28:29.348Z,98.60
2023-02-18T05:30:57.280Z,98.50
2023-02-18T05:33:25.159Z,98.50
2023-02-18T05:35:53.163Z,98.90
2023-02-18T05:38:22.423Z,98.60
2023-02-18T05:40:50.361Z,98.60
2023-02-18T05:43:18.191Z,98.70
2023-02-18T05:45:46.331Z,98.70
2023-02-18T05:48:14.211Z,98.90
2023-02-18T05:50:42.820Z,98.90
2023-02-18T05:53:10.934Z,99.10
2023-02-18T05:55:40.177Z,99.30
2023-02-18T05:58:08.272Z,99.30
2023-02-18T06:00:36.151Z,99.70
2023-02-18T06:03:04.095Z,99.90
2023-02-18T06:05:32.026Z,99.90
2023-02-18T06:07:59.942Z,99.90
2023-02-18T06:10:27.864Z,99.90
2023-02-18T06:12:57.073Z,99.90
2023-02-18T06:15:24.977Z,99.90
2023-02-18T06:17:52.919Z,99.90
2023-02-18T06:20:20.843Z,99.90
2023-02-18T06:22:48.746Z,99.90
2023-02-18T06:25:16.853Z,99.90
2023-02-18T06:27:44.798Z,99.90
2023-02-18T06:30:14.829Z,99.90
2023-02-18T06:32:42.762Z,99.90
2023-02-18T06:35:10.996Z,99.90
2023-02-18T06:37:38.856Z,99.90
2023-02-18T06:40:08.191Z,99.90
2023-02-18T06:42:36.084Z,99.90
2023-02-18T06:45:06.650Z,99.90
2023-02-18T06:47:36.258Z,99.90
2023-02-18T06:50:05.408Z,99.90
2023-02-18T06:52:34.637Z,99.90
2023-02-18T06:55:02.500Z,99.90
2023-02-18T06:57:30.363Z,99.90
2023-02-18T06:59:58.221Z,99.90
2023-02-18T07:02:26.124Z,99.90
2023-02-18T07:04:55.540Z,99.90
2023-02-18T07:07:23.389Z,99.90
2023-02-18T07:09:51.390Z,99.90
2023-02-18T07:12:19.273Z,99.90
2023-02-18T07:14:47.203Z,99.90
2023-02-18T07:17:15.289Z,99.90
2023-02-18T07:19:43.168Z,99.90
2023-02-18T07:22:12.467Z,99.90
2023-02-18T07:24:40.327Z,99.90
2023-02-18T07:27:08.207Z,99.90
2023-02-18T07:29:36.090Z,99.90
2023-02-18T07:32:04.179Z,99.90
2023-02-18T07:34:32.047Z,99.90
2023-02-18T07:36:59.911Z,99.90
2023-02-18T07:39:29.166Z,99.90
2023-02-18T07:41:57.014Z,99.90
2023-02-18T07:44:27.610Z,99.90
2023-02-18T07:46:55.513Z,99.90
2023-02-18T07:49:23.451Z,99.90
2023-02-18T07:51:51.889Z,99.90
2023-02-18T07:54:19.838Z,99.80
2023-02-18T07:56:49.286Z,99.70
2023-02-18T07:59:17.215Z,99.70
2023-02-18T08:01:46.176Z,99.30
2023-02-18T08:04:15.266Z,98.60
2023-02-18T08:06:46.149Z,98.50
2023-02-18T08:09:15.072Z,97.50
2023-02-18T08:11:43.387Z,96.60
2023-02-18T08:14:12.820Z,95.80
2023-02-18T08:16:41.018Z,96.20
2023-02-18T08:19:08.988Z,95.40
2023-02-18T08:21:36.891Z,95.40
2023-02-18T08:24:05.098Z,94.30
2023-02-18T08:26:32.995Z,94.30
2023-02-18T08:29:00.806Z,93.40
2023-02-18T08:31:31.368Z,93.50
2023-02-18T08:34:01.443Z,93.30
2023-02-18T08:36:29.618Z,93.30
2023-02-18T08:38:57.665Z,92.90
2023-02-18T08:41:25.770Z,93.00
2023-02-18T08:43:53.636Z,92.20
2023-02-18T08:46:25.178Z,91.80
2023-02-18T08:49:02.463Z,91.50
2023-02-18T08:51:31.505Z,90.90
2023-02-18T08:53:59.573Z,90.00
2023-02-18T08:56:27.521Z,89.60
2023-02-18T08:58:55.414Z,86.10
2023-02-18T09:01:23.345Z,85.80
2023-02-18T09:03:51.434Z,85.00
2023-02-18T09:06:20.705Z,84.40
2023-02-18T09:08:48.779Z,84.40
2023-02-18T09:11:17.250Z,82.10
2023-02-18T09:13:45.122Z,83.00
2023-02-18T09:16:15.423Z,80.30
2023-02-18T09:18:43.895Z,80.50
2023-02-18T09:21:14.044Z,80.10
2023-02-18T09:23:43.506Z,79.60
2023-02-18T09:26:14.382Z,79.00
2023-02-18T09:28:42.647Z,78.90
2023-02-18T09:31:13.207Z,80.40
2023-02-18T09:33:45.578Z,79.80
2023-02-18T09:36:14.021Z,80.40
2023-02-18T09:38:43.308Z,80.00
2023-02-18T09:41:26.002Z,78.80
2023-02-18T09:43:58.100Z,77.30
2023-02-18T09:46:30.892Z,78.30
2023-02-18T09:49:02.376Z,77.00
2023-02-18T09:51:30.276Z,78.50
2023-02-18T09:53:59.753Z,76.40
2023-02-18T09:56:31.741Z,76.70
2023-02-18T09:59:04.325Z,75.20
2023-02-18T10:01:35.315Z,75.90
2023-02-18T10:04:06.194Z,74.50
2023-02-18T10:06:36.356Z,73.40
2023-02-18T10:09:15.082Z,72.10
2023-02-18T10:11:44.930Z,71.30
2023-02-18T10:14:14.891Z,70.80
2023-02-18T10:16:44.724Z,70.70
2023-02-18T10:19:22.980Z,70.00
2023-02-18T10:21:52.936Z,69.10
2023-02-18T10:24:29.531Z,70.90
2023-02-18T10:26:57.794Z,72.10
2023-02-18T10:29:26.929Z,70.40
2023-02-18T10:32:00.526Z,68.10
2023-02-18T10:34:41.573Z,69.80
2023-02-18T10:37:28.060Z,69.80
2023-02-18T10:40:07.818Z,69.70
2023-02-18T10:42:45.680Z,69.70
2023-02-18T10:45:22.077Z,68.40
2023-02-18T10:47:58.707Z,69.70
2023-02-18T10:50:30.317Z,70.00
2023-02-18T10:53:03.184Z,69.70
2023-02-18T10:55:40.070Z,70.40
2023-02-18T10:58:26.740Z,70.30
2023-02-18T11:00:55.379Z,69.60
2023-02-18T11:03:25.425Z,71.20
2023-02-18T11:05:56.848Z,71.20
2023-02-18T11:08:28.121Z,71.70
2023-02-18T11:10:58.266Z,71.00
2023-02-18T11:13:28.686Z,70.40
2023-02-18T11:15:59.494Z,71.40
2023-02-18T11:18:38.110Z,72.00
2023-02-18T11:21:21.421Z,69.50
2023-02-18T11:23:51.140Z,70.90
2023-02-18T11:26:25.572Z,70.60
2023-02-18T11:28:59.905Z,70.80
2023-02-18T11:31:39.228Z,70.20
2023-02-18T11:34:20.135Z,70.00
2023-02-18T11:36:53.254Z,70.90
2023-02-18T11:39:27.896Z,70.40
2023-02-18T11:42:10.803Z,70.50
2023-02-18T11:44:51.559Z,68.80
2023-02-18T11:47:29.299Z,68.70
2023-02-18T11:50:31.958Z,69.70
2023-02-18T11:53:31.469Z,68.80
2023-02-18T11:56:11.318Z,68.10
2023-02-18T11:58:55.982Z,68.00
2023-02-18T12:01:53.659Z,67.90
2023-02-18T12:04:30.691Z,68.10
2023-02-18T12:07:20.313Z,68.80
2023-02-18T12:10:00.094Z,68.30
2023-02-18T12:12:50.671Z,68.20
2023-02-18T12:15:41.876Z,67.40
2023-02-18T12:18:55.214Z,68.10
2023-02-18T12:22:09.992Z,68.60
2023-02-18T12:25:06.313Z,67.70
2023-02-18T12:27:43.118Z,68.60
2023-02-18T12:30:38.651Z,68.20
2023-02-18T12:33:17.871Z,68.10
2023-02-18T12:35:55.692Z,67.40
2023-02-18T12:38:45.747Z,69.30
2023-02-18T12:41:30.931Z,69.70
2023-02-18T12:44:08.075Z,68.50
2023-02-18T12:46:51.892Z,67.70
2023-02-18T12:49:35.814Z,68.30
2023-02-18T12:52:20.959Z,68.60
2023-02-18T12:55:10.510Z,68.90
2023-02-18T12:57:44.451Z,68.60
2023-02-18T13:00:42.713Z,67.30
2023-02-18T13:03:48.059Z,68.20
2023-02-18T13:06:29.270Z,67.70
2023-02-18T13:09:08.173Z,67.80
2023-02-18T13:11:49.547Z,67.40
2023-02-18T13:14:21.941Z,67.90
2023-02-18T13:16:53.668Z,69.00
2023-02-18T13:19:26.487Z,69.50
2023-02-18T13:21:59.919Z,70.80
2023-02-18T13:24:34.031Z,72.00
2023-02-18T13:27:14.451Z,74.30
2023-02-18T13:29:49.449Z,74.30
2023-02-18T13:32:28.317Z,73.70
2023-02-18T13:35:03.406Z,74.30
2023-02-18T13:37:38.242Z,74.20
2023-02-18T13:40:18.496Z,74.20
2023-02-18T13:42:46.387Z,74.20
2023-02-18T13:45:35.476Z,73.90
2023-02-18T13:48:03.568Z,74.10
2023-02-18T13:50:43.148Z,74.10
2023-02-18T13:53:24.295Z,74.40
2023-02-18T13:56:05.357Z,74.90
2023-02-18T13:58:38.306Z,74.50
2023-02-18T14:01:15.000Z,75.30
2023-02-18T14:03:58.961Z,74.80
2023-02-18T14:06:31.864Z,75.50
2023-02-18T14:09:40.922Z,75.00
2023-02-18T14:12:27.010Z,75.20
2023-02-18T14:14:54.917Z,74.60
2023-02-18T14:17:36.084Z,74.90
2023-02-18T14:20:43.154Z,75.30
2023-02-18T14:23:45.836Z,75.30
2023-02-18T14:26:25.829Z,75.50
2023-02-18T14:28:59.887Z,75.20
2023-02-18T14:31:36.837Z,75.60
2023-02-18T14:34:36.624Z,74.30
2023-02-18T14:37:31.717Z,75.10
2023-02-18T14:40:15.410Z,74.50
2023-02-18T14:42:51.751Z,74.50
2023-02-18T14:45:32.092Z,74.60
2023-02-18T14:48:18.245Z,74.50
2023-02-18T14:50:50.344Z,74.40
2023-02-18T14:53:22.907Z,74.60
2023-02-18T14:55:55.331Z,74.50
2023-02-18T14:58:31.233Z,75.30
2023-02-18T15:00:59.311Z,76.10
2023-02-18T15:03:28.479Z,76.10
2023-02-18T15:05:56.397Z,76.00
2023-02-18T15:08:26.301Z,76.80
2023-02-18T15:11:01.796Z,76.90
2023-02-18T15:13:33.477Z,77.90
2023-02-18T15:16:05.098Z,78.00
2023-02-18T15:18:36.838Z,78.20
2023-02-18T15:21:07.774Z,78.50
2023-02-18T15:23:38.107Z,78.90
2023-02-18T15:26:09.812Z,78.90
2023-02-18T15:28:43.850Z,79.10
2023-02-18T15:31:15.258Z,79.40
2023-02-18T15:33:44.704Z,79.60
2023-02-18T15:36:15.593Z,79.80
2023-02-18T15:38:44.438Z,79.50
2023-02-18T15:41:16.412Z,79.90
2023-02-18T15:43:54.241Z,80.20
2023-02-18T15:46:26.194Z,80.40
2023-02-18T15:48:55.374Z,81.10
2023-02-18T15:51:27.315Z,82.00
2023-02-18T15:53:57.644Z,82.40
2023-02-18T15:56:32.350Z,83.20
2023-02-18T15:59:11.572Z,83.50
2023-02-18T16:01:39.541Z,85.60
2023-02-18T16:04:08.331Z,86.00
2023-02-18T16:06:39.190Z,87.40
2023-02-18T16:09:14.326Z,87.80
2023-02-18T16:11:46.623Z,88.00
2023-02-18T16:14:30.947Z,88.10
2023-02-18T16:17:09.160Z,87.90
2023-02-18T16:19:51.639Z,88.80
2023-02-18T16:22:34.169Z,88.20
2023-02-18T16:25:09.272Z,88.70
2023-02-18T16:27:47.034Z,88.80
2023-02-18T16:30:17.858Z,88.80
2023-02-18T16:32:46.264Z,88.50
2023-02-18T16:35:15.043Z,88.70
2023-02-18T16:37:45.276Z,88.80
2023-02-18T16:40:26.150Z,88.20
2023-02-18T16:42:56.705Z,88.40
2023-02-18T16:45:33.694Z,88.60
2023-02-18T16:48:02.325Z,88.40
2023-02-18T16:50:32.650Z,88.20
2023-02-18T16:53:01.888Z,88.80
2023-02-18T16:55:31.283Z,88.50
2023-02-18T16:58:00.572Z,88.50
2023-02-18T17:00:28.514Z,88.10
2023-02-18T17:02:59.580Z,88.10
2023-02-18T17:05:29.205Z,88.10
2023-02-18T17:08:00.730Z,88.30
2023-02-18T17:10:28.711Z,88.30
2023-02-18T17:12:56.679Z,88.50
2023-02-18T17:15:31.350Z,88.50
2023-02-18T17:17:59.765Z,88.60
2023-02-18T17:20:28.907Z,88.80
2023-02-18T17:22:57.130Z,88.80
2023-02-18T17:25:30.691Z,88.80
2023-02-18T17:27:58.934Z,88.10
2023-02-18T17:30:26.929Z,88.20
2023-02-18T17:32:56.427Z,88.60
2023-02-18T17:35:24.701Z,88.20
2023-02-18T17:37:52.703Z,88.50
2023-02-18T17:40:22.703Z,88.50
2023-02-18T17:42:51.373Z,88.30
2023-02-18T17:45:22.383Z,88.30
2023-02-18T17:47:50.235Z,88.10
2023-02-18T17:50:19.781Z,87.90
2023-02-18T17:52:47.610Z,87.30
2023-02-18T17:55:22.760Z,88.20
2023-02-18T17:57:52.092Z,87.90
2023-02-18T18:00:22.627Z,88.10
2023-02-18T18:02:50.788Z,88.00
2023-02-18T18:05:22.452Z,88.30
2023-02-18T18:07:51.687Z,89.00
2023-02-18T18:10:21.964Z,88.50
2023-02-18T18:12:50.865Z,88.40
2023-02-18T18:15:25.549Z,88.20
2023-02-18T18:17:53.663Z,87.90
2023-02-18T18:20:23.282Z,88.10
2023-02-18T18:22:52.234Z,88.30
2023-02-18T18:25:23.306Z,88.80
2023-02-18T18:27:52.912Z,88.70
2023-02-18T18:30:22.946Z,88.80
2023-02-18T18:32:51.246Z,88.20
2023-02-18T18:35:23.566Z,88.50
2023-02-18T18:37:51.941Z,88.00
2023-02-18T18:40:21.249Z,88.10
2023-02-18T18:42:49.128Z,88.40
2023-02-18T18:45:20.159Z,88.90
2023-02-18T18:47:48.725Z,88.20
2023-02-18T18:50:17.888Z,88.80
2023-02-18T18:52:48.240Z,89.40
2023-02-18T18:55:25.190Z,89.50
2023-02-18T18:57:54.176Z,89.60
2023-02-18T19:00:24.966Z,90.00
2023-02-18T19:02:52.868Z,90.00
2023-02-18T19:05:24.541Z,90.20
2023-02-18T19:07:53.930Z,90.20
2023-02-18T19:10:22.711Z,90.50
2023-02-18T19:12:51.064Z,90.30
2023-02-18T19:15:21.559Z,90.20
2023-02-18T19:17:51.699Z,90.30
2023-02-18T19:20:22.455Z,90.30
2023-02-18T19:22:50.644Z,90.40
2023-02-18T19:25:21.637Z,90.40
2023-02-18T19:27:50.600Z,90.50
2023-02-18T19:30:22.893Z,91.00
2023-02-18T19:32:51.387Z,91.40
2023-02-18T19:35:20.258Z,91.60
2023-02-18T19:37:50.396Z,92.50
2023-02-18T19:40:21.859Z,92.20
2023-02-18T19:42:50.320Z,92.40
2023-02-18T19:45:19.085Z,92.40
2023-02-18T19:47:47.408Z,92.50
2023-02-18T19:50:17.849Z,92.70
2023-02-18T19:52:45.725Z,92.90
2023-02-18T19:55:13.624Z,93.00
2023-02-18T19:57:42.872Z,92.90
2023-02-18T20:00:13.528Z,93.30
2023-02-18T20:02:41.773Z,93.60
2023-02-18T20:05:10.939Z,93.90
2023-02-18T20:07:41.439Z,94.10
2023-02-18T20:10:12.493Z,94.30
2023-02-18T20:12:41.737Z,94.30
2023-02-18T20:15:10.124Z,94.30
2023-02-18T20:17:39.625Z,93.90
2023-02-18T20:20:08.464Z,93.50
2023-02-18T20:22:36.412Z,93.60
2023-02-18T20:25:04.868Z,93.70
2023-02-18T20:27:34.260Z,93.90
2023-02-18T20:30:04.108Z,94.00
2023-02-18T20:32:32.215Z,94.00
2023-02-18T20:35:00.489Z,94.00
2023-02-18T20:37:28.446Z,93.80
2023-02-18T20:39:56.324Z,93.80
2023-02-18T20:42:24.308Z,93.90
2023-02-18T20:44:52.813Z,93.90
2023-02-18T20:47:22.076Z,94.10
2023-02-18T20:49:50.135Z,94.20
2023-02-18T20:52:18.005Z,94.40
2023-02-18T20:54:45.980Z,94.60
2023-02-18T20:57:13.885Z,94.70
2023-02-18T20:59:41.737Z,94.80
2023-02-18T21:02:09.731Z,94.90
2023-02-18T21:04:39.056Z,94.90
2023-02-18T21:07:07.114Z,94.90
2023-02-18T21:09:35.131Z,94.90
2023-02-18T21:12:03.040Z,94.90
2023-02-18T21:14:30.916Z,95.00
2023-02-18T21:16:58.972Z,95.00
2023-02-18T21:19:26.859Z,95.00
2023-02-18T21:21:56.955Z,95.00
2023-02-18T21:24:24.899Z,94.90
2023-02-18T21:26:53.777Z,94.70
2023-02-18T21:29:21.647Z,94.70
2023-02-18T21:31:50.059Z,94.60
2023-02-18T21:34:18.036Z,94.50
2023-02-18T21:36:46.126Z,94.60
2023-02-18T21:39:16.203Z,94.60
2023-02-18T21:41:44.158Z,94.90
2023-02-18T21:44:12.114Z,95.20
2023-02-18T21:46:41.063Z,95.20
2023-02-18T21:49:10.355Z,95.50
2023-02-18T21:51:59.138Z,95.90
2023-02-18T21:54:30.029Z,96.10
2023-02-18T21:56:59.509Z,96.40
2023-02-18T21:59:29.272Z,96.70
2023-02-18T22:02:00.332Z,96.70
2023-02-18T22:04:29.435Z,96.80
2023-02-18T22:06:58.385Z,96.80
2023-02-18T22:09:28.054Z,96.70
2023-02-18T22:11:56.300Z,96.50
2023-02-18T22:14:24.213Z,96.40
2023-02-18T22:16:52.203Z,96.30
2023-02-18T22:19:20.168Z,96.10
2023-02-18T22:21:48.794Z,96.10
2023-02-18T22:24:18.690Z,95.90
2023-02-18T22:26:49.028Z,95.70
2023-02-18T22:29:19.408Z,95.60
2023-02-18T22:31:48.047Z,95.40
2023-02-18T22:34:17.003Z,95.20
2023-02-18T22:36:44.953Z,95.10
2023-02-18T22:39:13.929Z,95.10
2023-02-18T22:41:42.035Z,95.10
2023-02-18T22:44:14.985Z,95.00
2023-02-18T22:46:43.213Z,95.10
2023-02-18T22:49:12.180Z,95.10
2023-02-18T22:51:42.265Z,95.10
2023-02-18T22:54:12.749Z,95.10
2023-02-18T22:56:40.881Z,95.20
2023-02-18T22:59:08.741Z,95.10
2023-02-18T23:01:39.974Z,95.10
2023-02-18T23:04:11.043Z,95.10
2023-02-18T23:06:40.380Z,95.10
2023-02-18T23:09:12.970Z,95.10
2023-02-18T23:11:40.894Z,95.20
2023-02-18T23:14:21.605Z,95.30
2023-02-18T23:17:11.757Z,95.30
2023-02-18T23:19:41.248Z,95.30
2023-02-18T23:22:10.163Z,95.40
2023-02-18T23:24:40.676Z,95.40
2023-02-18T23:27:10.326Z,95.40
2023-02-18T23:29:38.559Z,95.40
2023-02-18T23:32:08.590Z,95.10
2023-02-18T23:34:38.115Z,95.10
2023-02-18T23:37:06.699Z,95.00
2023-02-18T23:39:34.841Z,94.90
2023-02-18T23:42:02.773Z,94.50
2023-02-18T23:44:30.743Z,94.40
2023-02-18T23:47:00.232Z,94.20
2023-02-18T23:49:29.748Z,94.10
2023-02-18T23:51:58.328Z,94.10
2023-02-18T23:54:26.872Z,94.00
2023-02-18T23:56:54.852Z,93.90
2023-02-18T23:59:22.767Z,93.90
